Time;durP1;ratioP1;P1;durP2;ratioP2;P2;SDS_P1;SDS_P2;PMS_P1;PMS_P2;Temp;Humidity;BMP_temperature;BMP_pressure;BME280_temperature;BME280_humidity;BME280_pressure;Samples;Min_cycle;Max_cycle;Signal;HPM_P1;HPM_P2
2022/06/26 00:10:07;;;;;;;4.93;4.43;;;;;;;23.58;77.60;100945.31;20543728;28;20049;-67
2022/06/26 00:20:29;;;;;;;6.60;5.00;;;;;;;23.55;77.63;100948.34;20524276;28;20492;-66
2022/06/26 00:30:50;;;;;;;5.18;4.68;;;;;;;23.46;78.13;100941.41;20540618;28;20043;-67
2022/06/26 00:41:12;;;;;;;6.47;4.93;;;;;;;23.48;79.11;100942.06;20585135;28;20047;-66
2022/06/26 00:51:35;;;;;;;5.43;4.78;;;;;;;23.37;79.08;100947.81;20515165;28;20054;-67
2022/06/26 01:01:57;;;;;;;9.68;5.38;;;;;;;23.24;80.93;100939.59;20532006;28;20055;-67
2022/06/26 01:12:19;;;;;;;6.00;5.40;;;;;;;23.28;80.70;100935.59;20539496;28;20126;-67
2022/06/26 01:22:40;;;;;;;6.10;5.05;;;;;;;23.12;80.48;100930.38;20536599;28;20057;-66
2022/06/26 01:33:02;;;;;;;6.65;5.40;;;;;;;23.02;81.69;100935.03;20553457;28;20058;-66
2022/06/26 01:43:30;;;;;;;5.68;5.07;;;;;;;22.93;82.60;100925.47;20543050;28;20043;-66
2022/06/26 01:53:51;;;;;;;7.28;4.65;;;;;;;22.75;82.67;100938.19;20542608;28;20065;-66
2022/06/26 02:04:16;;;;;;;7.80;6.10;;;;;;;22.62;83.43;100940.59;20533790;28;20051;-67
2022/06/26 02:14:37;;;;;;;6.75;5.50;;;;;;;22.52;82.30;100934.66;20542467;28;20050;-66
2022/06/26 02:25:00;;;;;;;11.40;5.90;;;;;;;22.44;82.69;100928.53;20530164;28;20055;-67
2022/06/26 02:35:23;;;;;;;7.70;5.60;;;;;;;22.34;83.19;100927.09;20543693;28;20483;-66
2022/06/26 02:45:45;;;;;;;6.55;5.38;;;;;;;22.17;83.33;100920.97;20510609;28;20047;-67
2022/06/26 02:56:07;;;;;;;8.30;5.57;;;;;;;22.09;83.10;100915.66;20531291;28;20051;-66
2022/06/26 03:06:29;;;;;;;8.07;5.25;;;;;;;22.08;82.50;100926.47;20529058;28;20705;-67
2022/06/26 03:16:50;;;;;;;8.35;5.00;;;;;;;22.07;81.35;100922.16;20541663;28;20504;-66
2022/06/26 03:27:12;;;;;;;8.30;5.50;;;;;;;22.05;79.77;100921.50;20537156;28;20047;-67
2022/06/26 03:37:34;;;;;;;6.30;5.20;;;;;;;21.95;80.46;100920.88;20529633;28;20051;-66
2022/06/26 03:47:56;;;;;;;6.28;4.20;;;;;;;21.91;80.31;100920.34;20525023;28;20668;-66
2022/06/26 03:58:18;;;;;;;7.63;4.40;;;;;;;21.93;79.58;100965.34;20537094;28;20046;-68
2022/06/26 04:08:40;;;;;;;6.15;4.28;;;;;;;21.87;79.32;100982.78;20538071;28;20530;-68
2022/06/26 04:19:01;;;;;;;6.80;4.00;;;;;;;21.68;78.97;100987.59;20516745;28;20043;-67
2022/06/26 04:29:23;;;;;;;5.40;4.70;;;;;;;21.61;80.19;100976.78;20507896;28;20055;-65
2022/06/26 04:39:45;;;;;;;5.82;5.22;;;;;;;21.69;79.87;100982.09;20514460;28;20051;-66
2022/06/26 04:50:07;;;;;;;6.78;5.55;;;;;;;21.76;78.38;100996.34;20525676;28;20036;-66
2022/06/26 05:00:29;;;;;;;10.60;5.80;;;;;;;21.86;79.83;100990.88;20528215;28;20134;-66
2022/06/26 05:10:50;;;;;;;6.70;5.82;;;;;;;21.89;79.83;101017.09;20532056;28;20054;-67
2022/06/26 05:21:13;;;;;;;10.65;6.85;;;;;;;22.11;78.82;101038.50;20504027;28;20821;-66
2022/06/26 05:31:34;;;;;;;11.75;8.00;;;;;;;22.27;80.23;101064.25;20520455;28;20051;-66
2022/06/26 05:41:56;;;;;;;11.65;8.77;;;;;;;22.40;80.34;101068.91;20509524;28;20051;-65
2022/06/26 05:52:22;;;;;;;11.60;8.50;;;;;;;22.39;80.03;101096.47;20546581;28;20042;-64
2022/06/26 06:02:45;;;;;;;13.68;9.85;;;;;;;22.41;82.50;101126.34;20538342;28;20142;-65
2022/06/26 06:13:07;;;;;;;11.07;9.25;;;;;;;22.40;82.53;101140.66;20545839;28;20054;-67
2022/06/26 06:23:28;;;;;;;13.88;9.88;;;;;;;22.32;80.59;101146.91;20530392;28;20540;-67
2022/06/26 06:33:50;;;;;;;13.30;8.82;;;;;;;22.29;82.12;101147.25;20540986;28;20043;-67
2022/06/26 06:44:12;;;;;;;7.55;6.15;;;;;;;22.24;83.03;101155.72;20571983;28;20913;-68
2022/06/26 06:54:34;;;;;;;6.15;4.68;;;;;;;22.21;80.31;101182.59;20539480;28;20043;-67
2022/06/26 07:04:55;;;;;;;;;;;;;;;22.08;80.17;101190.22;20517213;28;20054;-65
2022/06/26 07:15:17;;;;;;;4.18;2.50;;;;;;;22.13;79.21;101200.34;20541931;28;19923;-66
2022/06/26 07:25:39;;;;;;;2.15;1.60;;;;;;;22.54;77.43;101203.78;20517406;28;20506;-64
2022/06/26 07:36:00;;;;;;;3.33;2.30;;;;;;;22.61;77.46;101212.72;20538509;28;20055;-65
2022/06/26 07:46:23;;;;;;;2.17;1.70;;;;;;;22.73;76.97;101222.03;20542698;28;20142;-64
2022/06/26 07:56:46;;;;;;;1.85;1.70;;;;;;;23.12;76.25;101233.66;20531863;28;20054;-67
2022/06/26 08:07:08;;;;;;;2.30;1.45;;;;;;;23.36;76.00;101247.72;20527415;28;20035;-66
2022/06/26 08:17:30;;;;;;;0.80;0.80;;;;;;;23.44;73.32;101254.84;20518226;28;20047;-66
2022/06/26 08:27:52;;;;;;;2.47;0.82;;;;;;;23.57;73.47;101260.50;20522947;28;20640;-67
2022/06/26 08:38:14;;;;;;;1.85;0.77;;;;;;;23.83;71.64;101283.22;20526943;28;20061;-67
2022/06/26 08:48:57;;;;;;;0.77;0.77;;;;;;;24.17;72.16;101296.22;20500336;28;20053;-67
2022/06/26 08:59:20;;;;;;;2.13;0.93;;;;;;;24.28;71.31;101303.84;20527682;28;20047;-67
2022/06/26 09:09:42;;;;;;;3.17;1.20;;;;;;;24.33;70.31;101313.78;20522486;28;20046;-67
2022/06/26 09:20:08;;;;;;;1.73;1.20;;;;;;;24.06;71.05;101336.56;20517173;28;20058;-68
2022/06/26 09:30:29;;;;;;;1.88;1.20;;;;;;;24.19;72.06;101348.34;20518587;28;20547;-68
2022/06/26 09:40:57;;;;;;;1.90;1.30;;;;;;;24.35;70.64;101338.44;20534193;28;20515;-68
2022/06/26 09:51:18;;;;;;;1.33;1.00;;;;;;;24.43;69.17;101362.41;20523238;28;20516;-68
2022/06/26 10:12:21;;;;;;;9.95;5.30;;;;;;;24.50;70.87;101376.72;20526730;28;20055;-67
2022/06/26 10:22:45;;;;;;;1.63;1.52;;;;;;;24.40;71.48;101384.06;20544175;28;20043;-68
2022/06/26 10:33:13;;;;;;;3.22;1.95;;;;;;;24.33;71.66;101377.75;20533724;28;20480;-68
2022/06/26 10:43:49;;;;;;;2.80;2.05;;;;;;;24.38;69.06;101385.22;20524672;28;20043;-67
2022/06/26 10:54:22;;;;;;;5.05;1.50;;;;;;;24.52;68.65;101385.38;20535069;28;20062;-67
2022/06/26 11:04:45;;;;;;;222.45;10.13;;;;;;;24.69;69.05;101389.63;20521802;28;20076;-68
2022/06/26 11:15:07;;;;;;;2.17;1.55;;;;;;;25.60;66.51;101370.72;20531432;28;20061;-64
2022/06/26 11:25:29;;;;;;;5.70;1.40;;;;;;;25.98;62.04;101367.00;20526682;28;20054;-63
2022/06/26 11:35:51;;;;;;;1.92;1.20;;;;;;;26.73;63.73;101366.53;20508934;28;20050;-64
2022/06/26 11:46:13;;;;;;;1.52;1.40;;;;;;;26.76;63.56;101384.91;20520767;28;20051;-64
2022/06/26 11:56:35;;;;;;;3.38;2.30;;;;;;;26.45;65.85;101394.19;20528249;28;20130;-64
2022/06/26 12:06:56;;;;;;;1.63;1.17;;;;;;;26.31;65.53;101391.50;20549105;28;20126;-63
2022/06/26 12:17:24;;;;;;;1.85;1.10;;;;;;;26.41;62.08;101388.38;20512484;28;20050;-65
2022/06/26 12:27:45;;;;;;;0.98;0.98;;;;;;;26.33;63.07;101392.16;20528876;28;20364;-65
2022/06/26 12:38:07;;;;;;;2.63;0.90;;;;;;;26.17;60.01;101405.72;20529348;28;20054;-64
2022/06/26 12:48:28;;;;;;;1.23;0.70;;;;;;;26.16;55.13;101401.38;20546050;28;20062;-64
2022/06/26 12:58:50;;;;;;;2.17;0.70;;;;;;;26.22;59.77;101395.28;20528713;28;20047;-66
2022/06/26 13:09:11;;;;;;;1.15;0.73;;;;;;;26.25;59.95;101402.94;20532313;28;20191;-65
2022/06/26 13:19:33;;;;;;;1.02;0.80;;;;;;;26.28;58.93;101407.94;20549769;28;20050;-65
2022/06/26 13:29:54;;;;;;;0.80;0.80;;;;;;;26.37;59.86;101400.44;20519856;28;20043;-64
2022/06/26 13:40:16;;;;;;;2.33;2.13;;;;;;;26.64;57.87;101398.94;20535388;28;20057;-65
2022/06/26 13:50:38;;;;;;;2.25;1.90;;;;;;;26.79;57.38;101419.28;20537317;28;20047;-64
2022/06/26 14:01:04;;;;;;;1.50;1.20;;;;;;;26.68;53.86;101417.13;20521813;28;20043;-66
2022/06/26 14:11:25;;;;;;;3.65;3.20;;;;;;;26.44;55.27;101416.59;20534764;28;20062;-65
2022/06/26 14:25:55;;;;;;;3.65;1.75;;;;;;;26.17;57.66;101405.72;20516686;28;20049;-65
2022/06/26 14:32:28;;;;;;;0.82;0.82;;;;;;;26.18;56.91;101410.06;20528389;28;20057;-65
2022/06/26 14:42:54;;;;;;;1.73;0.80;;;;;;;26.32;55.39;101387.81;20508349;28;20138;-65
2022/06/26 14:53:16;;;;;;;1.00;0.98;;;;;;;26.29;55.80;101394.34;20526100;28;20042;-65
2022/06/26 15:03:37;;;;;;;1.33;1.10;;;;;;;26.10;55.91;101386.06;20532192;28;20058;-64
2022/06/26 15:13:59;;;;;;;1.00;0.75;;;;;;;26.11;56.74;101385.06;20540965;28;20051;-65
2022/06/26 15:24:20;;;;;;;1.33;0.90;;;;;;;26.24;54.95;101379.88;20537024;28;20050;-65
2022/06/26 15:34:43;;;;;;;0.80;0.80;;;;;;;26.27;53.93;101380.34;20523308;28;20047;-65
2022/06/26 15:45:08;;;;;;;0.68;0.68;;;;;;;26.24;56.59;101371.88;20533794;28;20046;-68
2022/06/26 15:55:29;;;;;;;1.38;1.27;;;;;;;26.36;55.69;101373.88;20503425;28;20527;-69
2022/06/26 16:05:51;;;;;;;1.00;0.90;;;;;;;26.15;56.33;101378.34;20512175;28;20050;-68
2022/06/26 16:16:13;;;;;;;1.58;1.25;;;;;;;26.11;54.62;101391.25;20535349;28;20387;-68
2022/06/26 16:26:34;;;;;;;1.63;1.10;;;;;;;25.98;55.37;101383.03;20528591;28;20043;-65
2022/06/26 16:36:56;;;;;;;1.17;0.93;;;;;;;25.87;57.67;101374.66;20530424;28;20049;-65
2022/06/26 16:47:17;;;;;;;1.73;0.98;;;;;;;25.73;58.52;101386.13;20545759;28;20043;-65
2022/06/26 16:57:40;;;;;;;1.70;1.35;;;;;;;25.75;57.24;101392.94;20513157;28;20452;-68
2022/06/26 17:08:02;;;;;;;2.35;1.40;;;;;;;25.54;59.86;101397.34;20526451;28;20047;-68
2022/06/26 17:18:24;;;;;;;2.80;1.25;;;;;;;25.33;62.13;101380.34;20543548;28;20512;-67
2022/06/26 17:28:46;;;;;;;3.58;1.30;;;;;;;25.15;62.95;101378.00;20517103;28;20055;-67
2022/06/26 17:39:07;;;;;;;1.77;1.10;;;;;;;24.97;65.64;101388.09;20527006;28;20058;-67
2022/06/26 17:49:29;;;;;;;2.10;1.10;;;;;;;24.73;65.66;101390.94;20558685;28;20035;-66
2022/06/26 17:59:50;;;;;;;2.47;1.40;;;;;;;24.45;66.90;101375.53;20538809;28;20035;-66
2022/06/26 18:10:14;;;;;;;4.32;1.83;;;;;;;24.26;67.71;101381.28;20540526;28;20053;-66
2022/06/26 18:20:36;;;;;;;2.33;2.13;;;;;;;24.15;68.25;101373.69;20538077;28;20057;-65
2022/06/26 18:30:58;;;;;;;4.03;1.60;;;;;;;24.00;68.07;101385.25;20541454;28;20184;-66
2022/06/26 18:41:20;;;;;;;2.67;1.75;;;;;;;23.71;68.44;101374.28;20526772;28;20051;-66
2022/06/26 18:51:42;;;;;;;5.93;1.70;;;;;;;23.54;69.05;101393.94;20547099;28;20404;-69
2022/06/26 19:02:04;;;;;;;4.03;1.25;;;;;;;23.41;69.33;101401.63;20549633;28;20039;-68
2022/06/26 19:23:17;;;;;;;5.68;3.97;;;;;;;23.19;69.80;101388.16;20515936;28;20431;-68
2022/06/26 19:33:39;;;;;;;5.93;2.90;;;;;;;23.17;69.39;101396.28;20538682;28;20049;-69
2022/06/26 19:44:00;;;;;;;6.65;2.97;;;;;;;23.09;69.52;101393.63;20521218;28;20058;-69
2022/06/26 19:54:22;;;;;;;8.20;3.85;;;;;;;23.09;70.12;101393.63;20531735;28;20051;-69
2022/06/26 20:04:44;;;;;;;4.47;1.73;;;;;;;22.99;70.15;101403.56;20520075;28;20054;-68
2022/06/26 20:15:06;;;;;;;2.15;1.80;;;;;;;22.90;70.50;101436.44;20521519;28;20121;-68
2022/06/26 20:25:28;;;;;;;2.67;1.60;;;;;;;22.63;70.29;101431.38;20516569;28;20074;-69
2022/06/26 20:35:51;;;;;;;1.60;1.50;;;;;;;22.52;70.08;101437.00;20510497;28;20518;-69
2022/06/26 20:46:13;;;;;;;3.65;1.33;;;;;;;22.61;69.66;101451.97;20532058;28;20054;-69
2022/06/26 20:56:35;;;;;;;2.13;1.48;;;;;;;22.53;70.18;101438.66;20510568;28;20090;-68
2022/06/26 21:06:58;;;;;;;4.20;1.60;;;;;;;22.40;71.22;101425.00;20530353;28;20047;-68
2022/06/26 21:17:19;;;;;;;4.15;1.50;;;;;;;22.38;70.17;101414.69;20513472;28;20786;-68
2022/06/26 21:27:41;;;;;;;2.28;1.40;;;;;;;22.31;70.74;101417.13;20515242;28;20050;-69
2022/06/26 21:38:03;;;;;;;3.03;2.03;;;;;;;22.25;70.21;101408.94;20527398;28;20047;-67
2022/06/26 21:48:25;;;;;;;4.38;1.70;;;;;;;22.16;70.72;101423.16;20512572;28;20542;-68
2022/06/26 21:58:47;;;;;;;3.08;2.00;;;;;;;22.14;70.41;101401.25;20513423;28;20055;-67
2022/06/26 22:09:10;;;;;;;2.38;1.40;;;;;;;21.94;71.85;101382.06;20521947;28;20047;-68
2022/06/26 22:19:31;;;;;;;5.10;2.40;;;;;;;21.46;75.99;101384.38;20523508;28;20050;-67
2022/06/26 22:29:53;;;;;;;3.15;2.30;;;;;;;21.33;77.40;101370.66;20515653;28;20047;-68
2022/06/26 22:40:14;;;;;;;5.20;2.78;;;;;;;21.27;78.51;101357.19;20510718;28;20053;-67
2022/06/26 22:50:36;;;;;;;4.38;2.13;;;;;;;21.23;78.59;101339.94;20525679;28;20055;-68
2022/06/26 23:00:58;;;;;;;3.95;2.05;;;;;;;21.22;81.00;101325.00;20530639;28;20117;-69
2022/06/26 23:11:22;;;;;;;5.53;1.90;;;;;;;21.06;78.84;101308.13;20562832;28;20643;-68
2022/06/26 23:21:47;;;;;;;2.08;1.83;;;;;;;21.19;79.56;101327.09;20521542;28;20050;-68
2022/06/26 23:32:09;;;;;;;2.83;1.70;;;;;;;21.20;78.54;101337.59;20534455;28;20440;-68
2022/06/26 23:42:31;;;;;;;3.75;1.90;;;;;;;21.29;78.85;101379.09;20518250;28;20102;-67
2022/06/26 23:52:52;;;;;;;2.30;1.85;;;;;;;21.34;78.37;101344.97;20570615;28;20134;-66
